createdAt,value
2022-08-30T00:01:02.953Z,3.33
2022-08-30T00:03:52.182Z,2.83
2022-08-30T00:06:40.080Z,2.95
2022-08-30T00:09:27.904Z,3.10
2022-08-30T00:12:15.833Z,3.13
2022-08-30T00:15:06.950Z,3.25
2022-08-30T00:17:56.824Z,2.70
2022-08-30T00:20:46.803Z,2.80
2022-08-30T00:23:34.593Z,2.50
2022-08-30T00:26:22.595Z,3.08
2022-08-30T00:29:10.395Z,2.63
2022-08-30T00:31:58.362Z,2.97
2022-08-30T00:34:46.225Z,2.63
2022-08-30T00:37:34.553Z,2.88
2022-08-30T00:40:27.315Z,2.90
2022-08-30T00:43:25.406Z,3.28
2022-08-30T00:46:15.753Z,3.25
2022-08-30T00:49:07.367Z,2.83
2022-08-30T00:51:56.299Z,3.50
2022-08-30T00:54:46.767Z,2.83
2022-08-30T00:57:35.880Z,3.03
2022-08-30T01:00:23.771Z,2.15
2022-08-30T01:03:11.936Z,2.88
2022-08-30T01:06:01.640Z,2.50
2022-08-30T01:08:49.583Z,2.85
2022-08-30T01:11:39.181Z,3.22
2022-08-30T01:14:27.892Z,2.60
2022-08-30T01:17:17.392Z,3.03
2022-08-30T01:20:13.567Z,2.60
2022-08-30T01:23:14.475Z,2.55
2022-08-30T01:26:03.546Z,2.47
2022-08-30T01:28:57.341Z,2.90
2022-08-30T01:31:46.349Z,2.78
2022-08-30T01:34:34.186Z,2.75
2022-08-30T01:37:32.043Z,2.60
2022-08-30T01:40:20.719Z,3.28
2022-08-30T01:43:08.825Z,3.10
2022-08-30T01:45:56.710Z,3.08
2022-08-30T01:48:53.005Z,3.08
2022-08-30T01:51:43.323Z,3.60
2022-08-30T01:54:37.830Z,3.03
2022-08-30T01:57:29.390Z,3.30
2022-08-30T02:00:18.599Z,2.55
2022-08-30T02:03:07.046Z,2.72
2022-08-30T02:05:55.565Z,2.97
2022-08-30T02:08:44.483Z,3.17
2022-08-30T02:11:32.281Z,3.40
2022-08-30T02:14:21.139Z,3.03
2022-08-30T02:17:11.772Z,2.88
2022-08-30T02:19:59.612Z,2.97
2022-08-30T02:22:49.333Z,2.70
2022-08-30T02:25:37.562Z,2.90
2022-08-30T02:28:25.863Z,2.50
2022-08-30T02:31:13.865Z,3.03
2022-08-30T02:34:01.992Z,3.50
2022-08-30T02:36:49.836Z,2.88
2022-08-30T02:39:37.618Z,2.33
2022-08-30T02:42:25.400Z,2.97
2022-08-30T02:45:13.425Z,2.83
2022-08-30T02:48:01.514Z,2.88
2022-08-30T02:50:51.754Z,3.10
2022-08-30T02:53:41.737Z,2.95
2022-08-30T02:56:29.639Z,3.10
2022-08-30T02:59:18.931Z,3.10
2022-08-30T03:02:06.724Z,2.90
2022-08-30T03:04:54.627Z,2.58
2022-08-30T03:07:43.640Z,2.80
2022-08-30T03:10:31.823Z,3.05
2022-08-30T03:13:19.660Z,3.08
2022-08-30T03:16:07.554Z,2.90
2022-08-30T03:18:55.615Z,2.97
2022-08-30T03:21:43.419Z,3.35
2022-08-30T03:24:31.436Z,3.67
2022-08-30T03:27:19.227Z,3.20
2022-08-30T03:30:09.447Z,3.67
2022-08-30T03:32:57.255Z,5.18
2022-08-30T03:35:45.405Z,3.40
2022-08-30T03:38:33.360Z,2.92
2022-08-30T03:41:21.488Z,3.38
2022-08-30T03:44:10.172Z,3.42
2022-08-30T03:46:57.932Z,3.70
2022-08-30T03:49:46.684Z,3.80
2022-08-30T03:52:34.507Z,3.08
2022-08-30T03:55:22.407Z,3.45
2022-08-30T03:58:10.278Z,3.58
2022-08-30T04:00:58.153Z,2.97
2022-08-30T04:03:46.054Z,2.88
2022-08-30T04:06:34.445Z,3.50
2022-08-30T04:09:22.618Z,3.55
2022-08-30T04:12:10.493Z,3.33
2022-08-30T04:14:58.534Z,2.90
2022-08-30T04:17:47.196Z,3.65
2022-08-30T04:20:35.025Z,3.55
2022-08-30T04:23:22.823Z,3.28
2022-08-30T04:26:11.139Z,3.17
2022-08-30T04:28:59.336Z,3.97
2022-08-30T04:31:47.356Z,3.60
2022-08-30T04:34:35.203Z,3.40
2022-08-30T04:37:23.241Z,3.85
2022-08-30T04:40:12.020Z,3.92
2022-08-30T04:43:00.192Z,3.80
2022-08-30T04:45:48.252Z,3.85
2022-08-30T04:48:37.989Z,3.80
2022-08-30T04:51:25.819Z,3.72
2022-08-30T04:54:13.583Z,3.85
2022-08-30T04:57:01.772Z,3.70
2022-08-30T04:59:49.625Z,3.60
2022-08-30T05:02:39.531Z,4.07
2022-08-30T05:05:39.769Z,4.25
2022-08-30T05:08:27.675Z,4.30
2022-08-30T05:11:17.000Z,4.65
2022-08-30T05:14:05.780Z,4.70
2022-08-30T05:16:53.625Z,4.13
2022-08-30T05:19:41.459Z,4.20
2022-08-30T05:22:29.260Z,4.90
2022-08-30T05:25:20.950Z,6.97
2022-08-30T05:28:09.508Z,6.35
2022-08-30T05:30:57.447Z,4.70
2022-08-30T05:33:46.534Z,4.70
2022-08-30T05:36:37.401Z,4.15
2022-08-30T05:39:25.250Z,4.45
2022-08-30T05:42:13.208Z,4.78
2022-08-30T05:45:06.118Z,4.18
2022-08-30T05:47:54.110Z,3.88
2022-08-30T05:50:41.985Z,4.28
2022-08-30T05:53:29.779Z,4.53
2022-08-30T05:56:25.809Z,4.40
2022-08-30T05:59:15.349Z,4.22
2022-08-30T06:02:03.934Z,6.38
2022-08-30T06:04:51.839Z,4.60
2022-08-30T06:07:40.400Z,4.22
2022-08-30T06:10:28.249Z,3.83
2022-08-30T06:13:16.114Z,3.75
2022-08-30T06:16:04.189Z,4.85
2022-08-30T06:18:53.041Z,3.42
2022-08-30T06:21:42.804Z,4.32
2022-08-30T06:24:53.741Z,4.18
2022-08-30T06:27:38.732Z,3.88
2022-08-30T06:30:26.570Z,3.95
2022-08-30T06:33:14.375Z,4.57
2022-08-30T06:36:07.138Z,3.50
2022-08-30T06:38:57.463Z,4.65
2022-08-30T06:41:45.313Z,3.60
2022-08-30T06:44:33.297Z,3.65
2022-08-30T06:47:21.499Z,4.15
2022-08-30T06:50:12.245Z,3.55
2022-08-30T06:53:05.749Z,3.78
2022-08-30T06:56:00.479Z,3.08
2022-08-30T06:58:49.593Z,3.63
2022-08-30T07:01:37.718Z,3.67
2022-08-30T07:04:26.587Z,3.88
2022-08-30T07:07:14.982Z,3.80
2022-08-30T07:10:05.734Z,3.72
2022-08-30T07:12:53.581Z,3.58
2022-08-30T07:15:44.672Z,3.60
2022-08-30T07:18:50.476Z,3.60
2022-08-30T07:21:43.957Z,3.53
2022-08-30T07:24:31.835Z,3.40
2022-08-30T07:27:19.857Z,3.47
2022-08-30T07:30:09.234Z,3.10
2022-08-30T07:32:58.029Z,3.08
2022-08-30T07:35:45.958Z,2.83
2022-08-30T07:38:34.616Z,3.50
2022-08-30T07:41:35.561Z,3.05
2022-08-30T07:44:25.027Z,3.08
2022-08-30T07:47:13.178Z,3.42
2022-08-30T07:50:01.741Z,2.92
2022-08-30T07:52:49.804Z,2.80
2022-08-30T07:55:37.794Z,3.40
2022-08-30T07:58:25.774Z,3.65
2022-08-30T08:01:14.817Z,3.08
2022-08-30T08:04:03.190Z,3.15
2022-08-30T08:06:51.120Z,2.90
2022-08-30T08:09:39.423Z,2.42
2022-08-30T08:12:29.037Z,3.10
2022-08-30T08:15:19.347Z,3.25
2022-08-30T08:18:10.248Z,3.30
2022-08-30T08:20:59.785Z,3.63
2022-08-30T08:23:49.193Z,3.63
2022-08-30T08:26:45.490Z,2.75
2022-08-30T08:29:33.796Z,3.28
2022-08-30T08:32:21.857Z,3.20
2022-08-30T08:35:11.560Z,2.90
2022-08-30T08:38:00.959Z,3.30
2022-08-30T08:41:32.350Z,2.95
2022-08-30T08:45:13.943Z,3.70
2022-08-30T08:48:45.549Z,3.40
2022-08-30T08:52:03.009Z,3.15
2022-08-30T08:55:05.034Z,3.47
2022-08-30T08:57:56.641Z,2.97
2022-08-30T09:00:47.145Z,3.15
2022-08-30T09:03:39.465Z,3.28
2022-08-30T09:06:54.054Z,3.25
2022-08-30T09:09:45.988Z,3.00
2022-08-30T09:12:37.570Z,3.50
2022-08-30T09:15:34.661Z,3.47
2022-08-30T09:18:50.203Z,2.78
2022-08-30T09:21:44.779Z,2.92
2022-08-30T09:24:53.093Z,3.05
2022-08-30T09:27:47.524Z,2.97
2022-08-30T09:30:38.223Z,3.20
2022-08-30T09:33:29.055Z,3.03
2022-08-30T09:36:29.446Z,3.17
2022-08-30T09:39:30.245Z,4.05
2022-08-30T09:42:28.788Z,3.33
2022-08-30T09:45:33.289Z,3.20
2022-08-30T09:48:47.419Z,3.08
2022-08-30T09:51:52.393Z,2.80
2022-08-30T09:55:14.348Z,2.65
2022-08-30T09:58:40.459Z,2.95
2022-08-30T10:01:59.511Z,3.05
2022-08-30T10:05:27.771Z,3.10
2022-08-30T10:08:42.506Z,3.30
2022-08-30T10:12:29.887Z,2.78
2022-08-30T10:15:40.611Z,3.10
2022-08-30T10:18:54.869Z,2.90
2022-08-30T10:21:59.497Z,2.88
2022-08-30T10:24:54.083Z,3.35
2022-08-30T10:28:03.780Z,3.00
2022-08-30T10:31:11.855Z,2.72
2022-08-30T10:34:09.960Z,2.85
2022-08-30T10:37:11.497Z,2.42
2022-08-30T10:40:30.563Z,2.50
2022-08-30T10:43:54.357Z,3.03
2022-08-30T10:46:53.928Z,2.30
2022-08-30T10:49:49.645Z,3.00
2022-08-30T10:53:12.601Z,2.95
2022-08-30T10:56:10.476Z,2.47
2022-08-30T10:59:06.889Z,2.42
2022-08-30T11:02:19.241Z,2.67
2022-08-30T11:05:29.367Z,2.92
2022-08-30T11:09:09.468Z,2.97
2022-08-30T11:12:55.576Z,2.60
2022-08-30T11:16:15.463Z,2.40
2022-08-30T11:19:34.687Z,2.58
2022-08-30T11:22:39.235Z,2.83
2022-08-30T11:26:06.629Z,2.83
2022-08-30T11:29:02.268Z,2.67
2022-08-30T11:32:20.483Z,2.60
2022-08-30T11:35:12.130Z,2.83
2022-08-30T11:38:18.322Z,2.78
2022-08-30T11:41:32.533Z,2.80
2022-08-30T11:44:27.774Z,3.45
2022-08-30T11:47:55.538Z,2.97
2022-08-30T11:51:06.392Z,2.83
2022-08-30T11:55:00.699Z,2.75
2022-08-30T11:58:28.006Z,3.60
2022-08-30T12:01:52.249Z,3.00
2022-08-30T12:04:49.214Z,3.08
2022-08-30T12:08:04.079Z,2.88
2022-08-30T12:11:13.097Z,2.92
2022-08-30T12:14:09.399Z,2.67
2022-08-30T12:17:22.063Z,3.35
2022-08-30T12:20:30.792Z,2.90
2022-08-30T12:23:33.928Z,3.17
2022-08-30T12:26:32.534Z,2.88
2022-08-30T12:29:33.073Z,2.80
2022-08-30T12:32:25.661Z,2.95
2022-08-30T12:35:28.195Z,3.03
2022-08-30T12:38:27.557Z,2.92
2022-08-30T12:41:23.876Z,3.15
2022-08-30T12:44:29.632Z,3.10
2022-08-30T12:47:29.512Z,2.47
2022-08-30T12:50:36.414Z,3.13
2022-08-30T12:53:37.103Z,2.80
2022-08-30T12:56:57.816Z,2.78
2022-08-30T13:00:02.203Z,3.08
2022-08-30T13:02:57.784Z,3.22
2022-08-30T13:05:53.036Z,3.05
2022-08-30T13:08:51.653Z,3.05
2022-08-30T13:11:48.646Z,3.25
2022-08-30T13:14:44.323Z,3.47
2022-08-30T13:17:34.993Z,3.05
2022-08-30T13:20:26.585Z,2.90
2022-08-30T13:23:23.973Z,2.95
2022-08-30T13:26:14.743Z,2.90
2022-08-30T13:29:26.657Z,3.20
2022-08-30T13:32:17.400Z,2.67
2022-08-30T13:35:07.099Z,3.10
2022-08-30T13:38:00.093Z,2.58
2022-08-30T13:40:48.371Z,3.17
2022-08-30T13:46:55.491Z,3.30
2022-08-30T13:49:46.826Z,3.17
2022-08-30T13:52:37.603Z,2.55
2022-08-30T13:55:29.103Z,3.15
2022-08-30T13:58:20.777Z,2.75
2022-08-30T14:01:12.526Z,2.78
2022-08-30T14:04:18.067Z,2.80
2022-08-30T14:07:19.816Z,2.83
2022-08-30T14:13:20.108Z,3.28
2022-08-30T14:16:28.445Z,2.80
2022-08-30T14:19:19.443Z,2.80
2022-08-30T14:22:08.824Z,3.30
2022-08-30T14:25:01.451Z,3.00
2022-08-30T14:27:53.430Z,2.72
2022-08-30T14:30:43.605Z,3.20
2022-08-30T14:33:34.329Z,3.10
2022-08-30T14:36:25.664Z,3.30
2022-08-30T14:39:19.720Z,2.55
2022-08-30T14:42:11.780Z,3.22
2022-08-30T14:45:07.908Z,2.70
2022-08-30T14:48:02.752Z,2.88
2022-08-30T14:51:01.617Z,3.00
2022-08-30T14:53:57.114Z,2.97
2022-08-30T14:56:48.121Z,3.10
2022-08-30T14:59:39.881Z,2.90
2022-08-30T15:02:30.641Z,3.20
2022-08-30T15:05:22.380Z,2.58
2022-08-30T15:08:15.884Z,2.53
2022-08-30T15:11:12.794Z,2.80
2022-08-30T15:14:03.380Z,2.50
2022-08-30T15:16:56.312Z,3.17
2022-08-30T15:19:45.189Z,2.93
2022-08-30T15:22:34.616Z,2.95
2022-08-30T15:25:27.208Z,2.90
2022-08-30T15:28:18.212Z,3.10
2022-08-30T15:31:09.600Z,2.92
2022-08-30T15:34:01.500Z,3.10
2022-08-30T15:36:52.090Z,2.72
2022-08-30T15:39:42.229Z,3.08
2022-08-30T15:42:34.125Z,3.33
2022-08-30T15:45:24.770Z,2.97
2022-08-30T15:48:17.952Z,2.88
2022-08-30T15:51:08.223Z,2.92
2022-08-30T15:54:00.964Z,3.05
2022-08-30T15:56:59.110Z,2.90
2022-08-30T15:59:49.974Z,3.22
2022-08-30T16:02:40.715Z,3.22
2022-08-30T16:05:32.483Z,2.60
2022-08-30T16:08:23.152Z,3.00
2022-08-30T16:11:17.027Z,2.63
2022-08-30T16:14:08.569Z,3.15
2022-08-30T16:16:58.465Z,3.20
2022-08-30T16:19:50.610Z,2.72
2022-08-30T16:22:45.775Z,2.75
2022-08-30T16:25:40.653Z,3.30
2022-08-30T16:28:30.657Z,2.97
2022-08-30T16:31:22.960Z,2.92
2022-08-30T16:34:17.293Z,2.78
2022-08-30T16:37:07.700Z,3.00
2022-08-30T16:40:00.301Z,2.60
2022-08-30T16:42:51.282Z,2.70
2022-08-30T16:45:41.253Z,3.08
2022-08-30T16:48:31.003Z,2.95
2022-08-30T16:51:28.502Z,2.88
2022-08-30T16:54:20.856Z,3.25
2022-08-30T16:57:12.312Z,3.17
2022-08-30T17:00:01.958Z,3.50
2022-08-30T17:02:56.702Z,2.95
2022-08-30T17:05:48.822Z,2.65
2022-08-30T17:08:39.811Z,3.15
2022-08-30T17:11:32.013Z,2.78
2022-08-30T17:17:32.796Z,3.45
2022-08-30T17:20:26.213Z,3.00
2022-08-30T17:23:18.459Z,2.75
2022-08-30T17:26:10.931Z,3.35
2022-08-30T17:29:03.034Z,3.42
2022-08-30T17:31:53.623Z,2.63
2022-08-30T17:34:45.428Z,3.53
2022-08-30T17:37:36.044Z,2.78
2022-08-30T17:40:26.620Z,3.28
2022-08-30T17:43:18.068Z,3.20
2022-08-30T17:46:18.473Z,3.22
2022-08-30T17:49:10.571Z,2.95
2022-08-30T17:52:02.250Z,3.37
2022-08-30T17:54:53.511Z,2.88
2022-08-30T17:57:44.295Z,3.15
2022-08-30T18:00:36.045Z,3.03
2022-08-30T18:03:26.676Z,3.60
2022-08-30T18:06:18.629Z,3.45
2022-08-30T18:09:11.367Z,2.80
2022-08-30T18:12:01.073Z,3.10
2022-08-30T18:14:52.604Z,3.50
2022-08-30T18:17:43.060Z,3.20
2022-08-30T18:20:34.989Z,3.10
2022-08-30T18:23:27.171Z,3.20
2022-08-30T18:26:19.114Z,3.45
2022-08-30T18:29:18.943Z,2.97
2022-08-30T18:32:18.421Z,3.85
2022-08-30T18:35:09.023Z,3.63
2022-08-30T18:37:59.595Z,3.30
2022-08-30T18:40:51.866Z,3.65
2022-08-30T18:43:43.896Z,3.53
2022-08-30T18:46:35.023Z,3.45
2022-08-30T18:49:32.122Z,3.22
2022-08-30T18:52:25.252Z,3.58
2022-08-30T18:55:16.521Z,3.55
2022-08-30T18:58:07.032Z,2.97
2022-08-30T19:00:58.969Z,3.28
2022-08-30T19:03:51.539Z,3.30
2022-08-30T19:06:45.416Z,3.42
2022-08-30T19:09:36.881Z,3.88
2022-08-30T19:12:27.614Z,5.35
2022-08-30T19:15:17.891Z,4.32
2022-08-30T19:18:17.509Z,3.88
2022-08-30T19:21:06.359Z,3.38
2022-08-30T19:24:02.156Z,3.63
2022-08-30T19:26:52.614Z,3.83
2022-08-30T19:29:45.100Z,3.70
2022-08-30T19:32:34.561Z,3.53
2022-08-30T19:35:25.195Z,3.30
2022-08-30T19:38:13.466Z,3.40
2022-08-30T19:41:02.288Z,3.75
2022-08-30T19:43:50.637Z,3.78
2022-08-30T19:46:41.118Z,3.58
2022-08-30T19:49:30.371Z,3.17
2022-08-30T19:52:21.825Z,3.38
2022-08-30T19:55:10.814Z,3.40
2022-08-30T19:58:00.308Z,3.55
2022-08-30T20:00:54.566Z,4.05
2022-08-30T20:03:49.355Z,3.95
2022-08-30T20:06:42.487Z,4.20
2022-08-30T20:09:31.286Z,4.15
2022-08-30T20:12:20.133Z,3.78
2022-08-30T20:15:11.731Z,3.55
2022-08-30T20:18:05.699Z,3.22
2022-08-30T20:20:56.682Z,3.70
2022-08-30T20:23:44.715Z,3.90
2022-08-30T20:24:23.997Z,2.70
2022-08-30T20:26:34.465Z,3.90
2022-08-30T20:29:22.522Z,3.65
2022-08-30T20:32:10.503Z,3.17
2022-08-30T20:34:59.101Z,3.38
2022-08-30T20:37:47.456Z,3.88
2022-08-30T20:40:38.469Z,3.72
2022-08-30T20:43:29.566Z,3.22
2022-08-30T20:46:20.118Z,3.50
2022-08-30T20:49:08.361Z,3.08
2022-08-30T20:51:56.417Z,3.35
2022-08-30T20:54:45.313Z,3.55
2022-08-30T20:57:33.868Z,3.30
2022-08-30T21:00:22.061Z,3.53
2022-08-30T21:03:27.745Z,3.40
2022-08-30T21:06:19.099Z,3.53
2022-08-30T21:09:09.029Z,3.45
2022-08-30T21:11:58.298Z,3.95
2022-08-30T21:14:46.357Z,4.00
2022-08-30T21:17:34.334Z,3.13
2022-08-30T21:20:22.785Z,3.28
2022-08-30T21:23:11.213Z,4.10
2022-08-30T21:25:59.223Z,3.08
2022-08-30T21:28:52.740Z,3.70
2022-08-30T21:31:40.705Z,3.70
2022-08-30T21:34:28.735Z,3.33
2022-08-30T21:37:16.709Z,3.40
2022-08-30T21:40:08.128Z,3.08
2022-08-30T21:42:56.659Z,3.42
2022-08-30T21:45:45.628Z,3.92
2022-08-30T21:48:37.298Z,4.00
2022-08-30T21:51:25.785Z,3.40
2022-08-30T21:54:15.811Z,3.20
2022-08-30T21:57:05.148Z,3.30
2022-08-30T21:59:53.131Z,3.90
2022-08-30T22:02:41.551Z,3.50
2022-08-30T22:05:29.681Z,4.10
2022-08-30T22:08:17.581Z,3.08
2022-08-30T22:11:10.522Z,3.67
2022-08-30T22:14:00.601Z,3.20
2022-08-30T22:16:48.929Z,3.60
2022-08-30T22:19:37.152Z,3.40
2022-08-30T22:22:25.113Z,4.25
2022-08-30T22:25:13.246Z,4.32
2022-08-30T22:28:01.334Z,3.70
2022-08-30T22:30:52.763Z,3.40
2022-08-30T22:33:41.496Z,3.80
2022-08-30T22:36:32.734Z,3.30
2022-08-30T22:39:20.989Z,4.07
2022-08-30T22:42:09.845Z,3.80
2022-08-30T22:44:57.699Z,4.15
2022-08-30T22:47:45.886Z,3.75
2022-08-30T22:50:33.751Z,3.80
2022-08-30T22:53:21.779Z,3.58
2022-08-30T22:56:16.548Z,4.00
2022-08-30T22:59:05.711Z,4.35
2022-08-30T23:01:53.774Z,4.40
2022-08-30T23:04:41.819Z,3.97
2022-08-30T23:07:29.770Z,3.30
2022-08-30T23:10:18.341Z,3.63
2022-08-30T23:13:06.258Z,4.00
2022-08-30T23:15:54.156Z,3.80
2022-08-30T23:18:44.636Z,4.43
2022-08-30T23:21:32.712Z,4.35
2022-08-30T23:24:39.132Z,4.43
2022-08-30T23:27:45.598Z,3.72
2022-08-30T23:30:51.987Z,3.55
2022-08-30T23:33:58.736Z,4.10
2022-08-30T23:37:05.991Z,3.60
2022-08-30T23:40:12.419Z,3.97
2022-08-30T23:43:20.761Z,4.45
2022-08-30T23:46:27.623Z,4.18
2022-08-30T23:49:34.384Z,3.60
2022-08-30T23:52:41.298Z,4.10
2022-08-30T23:55:47.678Z,4.32
2022-08-30T23:58:54.481Z,4.15
